Time;durP1;ratioP1;P1;durP2;ratioP2;P2;SDS_P1;SDS_P2;PMS_P1;PMS_P2;Temp;Humidity;BMP_temperature;BMP_pressure;BME280_temperature;BME280_humidity;BME280_pressure;Samples;Min_cycle;Max_cycle;Signal;HPM_P1;HPM_P2
2024/01/18 00:01:18;;;;;;;8.35;3.60;;;;;;;4.05;100.00;100156.16;5020168;28;20050;-83
2024/01/18 00:03:47;;;;;;;10.23;5.13;;;;;;;4.03;100.00;100150.97;5024448;28;20049;-81
2024/01/18 00:06:16;;;;;;;14.18;6.50;;;;;;;4.04;100.00;100154.44;5023826;28;20053;-81
2024/01/18 00:08:50;;;;;;;8.95;4.68;;;;;;;4.03;100.00;100163.78;5026319;28;20104;-80
2024/01/18 00:11:18;;;;;;;11.95;4.15;;;;;;;4.04;100.00;100159.56;5014424;28;20046;-82
2024/01/18 00:13:47;;;;;;;12.55;4.50;;;;;;;4.04;100.00;100165.53;5018312;28;20057;-81
2024/01/18 00:16:16;;;;;;;10.27;3.80;;;;;;;4.04;100.00;100180.03;5026085;28;20127;-79
2024/01/18 00:18:45;;;;;;;8.60;4.03;;;;;;;3.99;100.00;100172.16;5030224;28;20461;-80
2024/01/18 00:21:13;;;;;;;13.05;4.53;;;;;;;4.04;100.00;100188.59;5024496;28;20103;-78
2024/01/18 00:23:42;;;;;;;11.63;6.25;;;;;;;4.07;100.00;100200.66;5014617;28;20057;-81
2024/01/18 00:26:13;;;;;;;14.55;7.07;;;;;;;4.08;100.00;100200.72;5015199;28;20050;-83
2024/01/18 00:28:41;;;;;;;18.05;8.20;;;;;;;4.09;100.00;100210.16;5017204;28;20050;-80
2024/01/18 00:31:13;;;;;;;20.77;7.28;;;;;;;4.12;100.00;100207.75;5026359;28;20137;-82
2024/01/18 00:33:41;;;;;;;11.40;5.85;;;;;;;4.12;100.00;100205.19;5025032;28;20140;-83
2024/01/18 00:36:11;;;;;;;24.73;10.98;;;;;;;4.17;100.00;100207.97;5024799;28;20069;-82
2024/01/18 00:38:42;;;;;;;23.27;10.30;;;;;;;4.17;100.00;100207.97;5024480;28;20171;-83
2024/01/18 00:41:18;;;;;;;21.30;8.50;;;;;;;4.20;100.00;100218.34;5028995;28;20095;-83
2024/01/18 00:43:47;;;;;;;26.67;10.10;;;;;;;4.18;100.00;100212.25;5027644;28;20056;-81
2024/01/18 00:46:15;;;;;;;20.45;7.88;;;;;;;4.19;100.00;100221.69;5028098;28;20045;-82
2024/01/18 00:48:44;;;;;;;19.63;7.43;;;;;;;4.17;100.00;100234.44;5029573;28;20504;-82
2024/01/18 00:51:18;;;;;;;5.80;3.00;;;;;;;4.20;100.00;100233.69;5027538;28;20052;-82
2024/01/18 00:53:48;;;;;;;10.18;3.72;;;;;;;4.22;100.00;100229.53;5038648;28;20049;-81
2024/01/18 00:56:19;;;;;;;6.00;2.78;;;;;;;4.25;100.00;100242.47;5044581;28;20149;-80
2024/01/18 00:58:49;;;;;;;6.63;3.25;;;;;;;4.26;100.00;100244.25;5037510;28;20056;-81
2024/01/18 01:01:20;;;;;;;7.85;2.50;;;;;;;4.27;100.00;100256.22;5030857;28;20405;-81
2024/01/18 01:03:48;;;;;;;5.75;2.65;;;;;;;4.34;100.00;100252.28;5030644;28;20060;-79
2024/01/18 01:06:20;;;;;;;5.18;2.90;;;;;;;4.36;100.00;100255.78;5029809;28;20481;-80
2024/01/18 01:08:59;;;;;;;;;;;;;;;;;;;;;
2024/01/18 01:11:36;;;;;;;6.38;2.25;;;;;;;4.37;100.00;100258.38;5031457;28;20058;-80
2024/01/18 01:14:05;;;;;;;8.50;3.33;;;;;;;4.36;100.00;100266.91;5020419;28;20045;-80
2024/01/18 01:16:36;;;;;;;12.63;5.18;;;;;;;4.29;100.00;100261.44;5017786;28;20053;-78
2024/01/18 01:19:05;;;;;;;18.95;6.95;;;;;;;4.33;100.00;100277.00;5022448;28;20104;-79
2024/01/18 01:21:33;;;;;;;13.95;7.18;;;;;;;4.31;100.00;100278.63;5015652;28;20060;-79
2024/01/18 01:24:02;;;;;;;35.15;10.90;;;;;;;4.30;100.00;100281.09;5021893;28;20523;-79
2024/01/18 01:26:33;;;;;;;31.02;12.77;;;;;;;4.30;100.00;100292.22;5025113;28;20063;-79
2024/01/18 01:29:07;;;;;;;32.95;13.13;;;;;;;4.29;100.00;100290.47;5025512;28;20050;-79
2024/01/18 01:31:46;;;;;;;41.22;13.82;;;;;;;4.30;100.00;100287.09;5017341;28;20049;-80
2024/01/18 01:34:15;;;;;;;41.45;14.95;;;;;;;4.29;100.00;100290.47;5025488;28;20060;-80
2024/01/18 01:36:51;;;;;;;35.03;14.98;;;;;;;4.24;100.00;100281.69;5026725;28;20145;-78
2024/01/18 01:39:22;;;;;;;35.92;12.13;;;;;;;4.25;100.00;100290.25;5028382;28;20126;-78
2024/01/18 01:41:56;;;;;;;49.40;17.83;;;;;;;4.19;100.00;100288.25;5027291;28;20045;-78
2024/01/18 01:44:31;;;;;;;35.05;13.82;;;;;;;4.22;100.00;100298.66;5027479;28;20057;-78
2024/01/18 01:47:03;;;;;;;34.15;14.70;;;;;;;4.20;100.00;100295.16;5011619;28;20120;-78
2024/01/18 01:49:33;;;;;;;36.08;14.30;;;;;;;4.24;100.00;100312.44;5023627;28;20571;-79
2024/01/18 01:52:07;;;;;;;25.35;10.35;;;;;;;4.24;100.00;100322.69;5005640;28;20064;-80
2024/01/18 01:54:43;;;;;;;28.30;11.35;;;;;;;4.21;100.00;100325.06;5014405;28;20058;-79
2024/01/18 01:57:23;;;;;;;31.33;12.57;;;;;;;4.21;100.00;100327.63;5024671;28;20045;-80
2024/01/18 01:59:52;;;;;;;20.08;9.02;;;;;;;4.23;100.00;100333.72;5015410;28;20065;-79
2024/01/18 02:02:23;;;;;;;23.05;10.15;;;;;;;4.25;100.00;100331.22;5008279;28;20049;-81
2024/01/18 02:04:53;;;;;;;33.58;12.57;;;;;;;4.25;100.00;100334.66;5023874;28;20104;-80
2024/01/18 02:07:30;;;;;;;21.45;8.07;;;;;;;4.25;100.00;100342.34;5025433;28;20088;-81
2024/01/18 02:09:59;;;;;;;54.58;18.63;;;;;;;4.26;100.00;100341.56;5011212;28;20130;-82
2024/01/18 02:12:33;;;;;;;36.55;16.10;;;;;;;4.28;100.00;100360.41;5034997;28;20048;-80
2024/01/18 02:15:08;;;;;;;33.63;13.43;;;;;;;4.29;100.00;100362.19;5028217;28;20061;-80
2024/01/18 02:17:38;;;;;;;34.60;15.10;;;;;;;4.29;100.00;100372.44;5019943;28;20076;-81
2024/01/18 02:20:08;;;;;;;37.65;14.88;;;;;;;4.26;100.00;100371.38;5023086;28;20049;-81
2024/01/18 02:22:45;;;;;;;39.00;17.20;;;;;;;4.30;100.00;100383.53;5024774;28;20064;-80
2024/01/18 02:25:28;;;;;;;37.03;16.88;;;;;;;4.28;100.00;100383.47;5020105;28;20065;-80
2024/01/18 02:28:00;;;;;;;32.15;15.10;;;;;;;4.31;100.00;100390.44;5025574;28;20052;-80
2024/01/18 02:30:31;;;;;;;40.05;17.35;;;;;;;4.31;100.00;100400.69;5020162;28;20064;-81
2024/01/18 02:33:00;;;;;;;52.45;20.25;;;;;;;4.34;100.00;100400.81;5022358;28;20497;-81
2024/01/18 02:35:29;;;;;;;41.60;17.35;;;;;;;4.33;100.00;100399.06;5026876;28;20065;-81
2024/01/18 02:37:58;;;;;;;35.60;16.08;;;;;;;4.36;100.00;100404.34;5025324;28;20132;-81
2024/01/18 02:40:31;;;;;;;42.58;15.57;;;;;;;4.35;100.00;100403.47;5025743;28;20489;-81
2024/01/18 02:42:59;;;;;;;38.10;17.15;;;;;;;4.36;100.00;100412.91;5020416;28;20135;-79
2024/01/18 02:45:28;;;;;;;40.83;17.98;;;;;;;4.38;100.00;100418.97;5027977;28;20081;-79
2024/01/18 02:47:57;;;;;;;45.47;17.70;;;;;;;4.40;100.00;100422.50;5025914;28;20049;-79
2024/01/18 02:50:33;;;;;;;41.63;16.48;;;;;;;4.38;100.00;100429.22;5034968;28;20084;-79
2024/01/18 02:53:02;;;;;;;38.10;16.15;;;;;;;4.40;100.00;100427.63;5029245;28;20144;-80
2024/01/18 02:55:33;;;;;;;36.25;14.25;;;;;;;4.40;100.00;100439.56;5029531;28;20073;-81
2024/01/18 02:58:01;;;;;;;38.72;16.30;;;;;;;4.38;100.00;100444.59;5026964;28;20133;-79
2024/01/18 03:00:38;;;;;;;36.78;14.15;;;;;;;4.34;100.00;100449.50;5016375;28;20138;-78
2024/01/18 03:03:07;;;;;;;43.10;17.98;;;;;;;4.32;100.00;100446.84;5027045;28;20056;-79
2024/01/18 03:05:36;;;;;;;40.22;15.55;;;;;;;4.31;100.00;100447.66;5019822;28;20074;-79
2024/01/18 03:08:08;;;;;;;44.22;15.88;;;;;;;4.33;100.00;100456.31;5026974;28;20057;-79
2024/01/18 03:10:42;;;;;;;30.65;13.52;;;;;;;4.33;100.00;100464.00;5027966;28;20080;-79
2024/01/18 03:13:11;;;;;;;32.70;12.23;;;;;;;4.30;100.00;100470.63;5015966;28;20060;-79
2024/01/18 03:15:40;;;;;;;25.20;10.85;;;;;;;4.29;100.00;100471.44;5018137;28;20137;-79
2024/01/18 03:18:09;;;;;;;25.95;10.13;;;;;;;4.26;100.00;100471.25;5023998;28;20059;-81
2024/01/18 03:20:40;;;;;;;24.55;9.07;;;;;;;4.26;100.00;100482.41;5024881;28;20057;-79
2024/01/18 03:23:09;;;;;;;29.85;11.15;;;;;;;4.28;100.00;100491.03;5013967;28;20049;-79
2024/01/18 03:25:40;;;;;;;35.70;12.57;;;;;;;4.29;100.00;100495.38;5023804;28;20140;-79
2024/01/18 03:28:09;;;;;;;32.13;11.82;;;;;;;4.31;100.00;100504.00;5038727;28;20038;-80
2024/01/18 03:30:37;;;;;;;25.75;11.13;;;;;;;4.32;100.00;100505.75;5036361;28;20060;-79
2024/01/18 03:33:06;;;;;;;32.50;11.35;;;;;;;4.32;100.00;100510.88;5023214;28;20050;-78
2024/01/18 03:35:35;;;;;;;22.10;8.82;;;;;;;4.34;100.00;100504.16;5028246;28;20089;-78
2024/01/18 03:38:04;;;;;;;15.65;6.88;;;;;;;4.35;100.00;100516.19;5025595;28;20132;-81
2024/01/18 03:40:33;;;;;;;20.15;8.23;;;;;;;4.33;100.00;100516.88;5031701;28;20046;-80
2024/01/18 03:43:05;;;;;;;18.90;8.05;;;;;;;4.32;100.00;100516.00;5050425;28;20060;-80
2024/01/18 03:45:35;;;;;;;20.02;7.38;;;;;;;4.34;100.00;100522.09;5041723;28;20064;-78
2024/01/18 03:48:04;;;;;;;20.50;7.68;;;;;;;4.33;100.00;100528.03;5030024;28;20053;-79
2024/01/18 03:50:33;;;;;;;21.27;7.72;;;;;;;4.31;100.00;100527.06;5030059;28;20061;-80
2024/01/18 03:53:04;;;;;;;14.82;7.20;;;;;;;4.31;100.00;100536.44;5031514;28;20049;-83
2024/01/18 03:55:32;;;;;;;21.33;7.38;;;;;;;4.35;100.00;100548.56;5031773;28;20054;-80
2024/01/18 03:58:03;;;;;;;14.07;7.45;;;;;;;4.31;100.00;100550.13;5028445;28;20065;-81
2024/01/18 04:00:32;;;;;;;21.23;7.88;;;;;;;4.31;100.00;100551.81;5020719;28;20057;-81
2024/01/18 04:03:01;;;;;;;20.27;7.63;;;;;;;4.33;100.00;100563.88;5024565;28;20046;-81
2024/01/18 04:05:34;;;;;;;23.00;8.00;;;;;;;4.34;100.00;100569.88;5024189;28;20539;-82
2024/01/18 04:08:04;;;;;;;22.45;7.43;;;;;;;4.34;100.00;100569.88;5022240;28;20072;-82
2024/01/18 04:10:33;;;;;;;18.42;6.60;;;;;;;4.31;100.00;100575.72;5024221;28;20065;-81
2024/01/18 04:13:18;;;;;;;18.15;8.05;;;;;;;4.31;100.00;100585.09;5024189;28;20061;-81
2024/01/18 04:15:47;;;;;;;17.92;8.27;;;;;;;4.28;100.00;100575.53;5021650;28;20186;-81
2024/01/18 04:18:16;;;;;;;16.55;6.43;;;;;;;4.28;100.00;100583.22;5030346;28;20459;-82
2024/01/18 04:20:54;;;;;;;;;;;;;;;;;;;;;
2024/01/18 04:23:23;;;;;;;20.17;9.45;;;;;;;4.26;100.00;100592.53;5026523;28;20052;-81
2024/01/18 04:25:54;;;;;;;25.75;10.35;;;;;;;4.26;100.00;100591.63;5022874;28;20489;-81
2024/01/18 04:28:24;;;;;;;28.42;11.57;;;;;;;4.25;100.00;100595.88;5024052;28;20445;-81
2024/01/18 04:30:56;;;;;;;39.90;14.95;;;;;;;4.25;100.00;100597.56;5029021;28;20045;-82
2024/01/18 04:33:25;;;;;;;52.17;19.60;;;;;;;4.24;100.00;100604.38;5027660;28;20077;-81
2024/01/18 04:35:53;;;;;;;34.45;14.57;;;;;;;4.28;100.00;100596.03;5024925;28;20053;-80
2024/01/18 04:38:22;;;;;;;31.83;11.68;;;;;;;4.29;100.00;100604.63;5021806;28;20064;-81
2024/01/18 04:40:52;;;;;;;30.02;10.75;;;;;;;4.29;100.00;100602.94;5029001;28;20056;-81
2024/01/18 04:43:23;;;;;;;30.15;11.30;;;;;;;4.27;100.00;100601.97;5032042;28;20052;-80
2024/01/18 04:45:54;;;;;;;25.42;8.75;;;;;;;4.29;100.00;100607.19;5029831;28;20053;-81
2024/01/18 04:48:24;;;;;;;29.77;10.13;;;;;;;4.25;100.00;100601.00;5028764;28;20508;-81
2024/01/18 04:51:03;;;;;;;24.15;9.75;;;;;;;4.30;100.00;100614.06;5026690;28;20056;-81
2024/01/18 04:53:41;;;;;;;31.23;11.38;;;;;;;4.31;100.00;100615.84;5016314;28;20049;-80
2024/01/18 04:56:16;;;;;;;24.42;11.07;;;;;;;4.31;100.00;100613.28;5024960;28;20148;-81
2024/01/18 04:58:48;;;;;;;26.05;11.05;;;;;;;4.30;100.00;100614.94;5024298;28;20049;-81
2024/01/18 05:01:18;;;;;;;27.67;10.55;;;;;;;4.32;100.00;100623.56;5023244;28;20053;-81
2024/01/18 05:03:47;;;;;;;34.58;10.50;;;;;;;4.31;100.00;100621.84;5020771;28;20068;-81
2024/01/18 05:06:24;;;;;;;38.28;12.93;;;;;;;4.33;100.00;100624.44;5025884;28;20053;-81
2024/01/18 05:08:53;;;;;;;33.00;11.50;;;;;;;4.36;100.00;100634.88;5023035;28;20091;-82
2024/01/18 05:11:21;;;;;;;24.80;8.82;;;;;;;4.37;100.00;100637.50;5021596;28;20041;-82
2024/01/18 05:13:50;;;;;;;25.85;9.30;;;;;;;4.39;100.00;100640.16;5019878;28;20057;-80
2024/01/18 05:16:31;;;;;;;21.58;8.35;;;;;;;4.40;100.00;100647.06;5016591;28;20053;-80
2024/01/18 05:19:00;;;;;;;25.48;9.95;;;;;;;4.35;100.00;100649.38;5027721;28;20050;-82
2024/01/18 05:21:29;;;;;;;25.50;9.50;;;;;;;4.35;100.00;100649.38;5027469;28;20053;-80
2024/01/18 05:23:57;;;;;;;17.33;7.63;;;;;;;4.36;100.00;100653.69;5027662;28;20055;-81
2024/01/18 05:26:26;;;;;;;15.23;6.18;;;;;;;4.35;100.00;100657.06;5027627;28;20097;-81
2024/01/18 05:28:55;;;;;;;11.82;4.82;;;;;;;4.30;100.00;100645.66;5021801;28;20531;-80
2024/01/18 05:31:25;;;;;;;19.90;5.97;;;;;;;4.34;100.00;100662.09;5022662;28;20050;-80
2024/01/18 05:33:56;;;;;;;16.15;5.85;;;;;;;4.30;100.00;100661.03;5024184;28;20064;-81
2024/01/18 05:36:27;;;;;;;11.98;5.57;;;;;;;4.26;100.00;100648.88;5025647;28;20055;-81
2024/01/18 05:38:56;;;;;;;12.07;4.43;;;;;;;4.27;100.00;100655.75;5026841;28;20045;-81
2024/01/18 05:41:25;;;;;;;15.52;5.70;;;;;;;4.27;100.00;100665.13;5019748;28;20046;-81
2024/01/18 05:43:56;;;;;;;17.25;5.20;;;;;;;4.28;100.00;100662.63;5020683;28;20061;-81
2024/01/18 05:46:30;;;;;;;17.67;5.38;;;;;;;4.27;100.00;100660.88;5020278;28;20444;-81
2024/01/18 05:48:59;;;;;;;19.23;5.95;;;;;;;4.25;100.00;100664.16;5026839;28;20055;-82
2024/01/18 05:51:27;;;;;;;81.18;35.03;;;;;;;4.27;100.00;100668.56;5019781;28;20042;-82
2024/01/18 05:53:57;;;;;;;26.90;10.52;;;;;;;4.22;100.00;100672.56;5024285;28;20050;-82
2024/01/18 05:56:33;;;;;;;23.38;10.15;;;;;;;4.19;100.00;100669.81;5026125;28;20066;-82
2024/01/18 05:59:01;;;;;;;122.47;41.30;;;;;;;4.22;100.00;100680.25;5023891;28;20049;-82
2024/01/18 06:01:32;;;;;;;33.30;12.35;;;;;;;4.16;100.00;100677.34;5028411;28;20068;-81
2024/01/18 06:04:01;;;;;;;82.72;29.55;;;;;;;4.18;100.00;100683.44;5028628;28;20080;-82
2024/01/18 06:06:33;;;;;;;67.22;25.63;;;;;;;4.12;100.00;100680.53;5026595;28;20045;-81
2024/01/18 06:09:02;;;;;;;41.75;16.48;;;;;;;4.14;100.00;100692.63;5022499;28;20077;-82
2024/01/18 06:11:31;;;;;;;36.58;13.20;;;;;;;4.08;100.00;100679.50;5025165;28;20112;-82
2024/01/18 06:14:00;;;;;;;44.10;16.30;;;;;;;4.17;100.00;100694.50;5016254;28;20057;-82
2024/01/18 06:16:29;;;;;;;31.20;13.32;;;;;;;4.17;100.00;100699.63;5028991;28;20077;-82
2024/01/18 06:19:03;;;;;;;22.58;9.02;;;;;;;4.20;100.00;100703.22;5031318;28;20045;-80
2024/01/18 06:21:32;;;;;;;21.67;8.32;;;;;;;4.15;100.00;100698.66;5024260;28;20049;-81
2024/01/18 06:24:01;;;;;;;19.30;8.48;;;;;;;4.18;100.00;100706.50;5029667;28;20049;-81
2024/01/18 06:26:30;;;;;;;22.70;9.13;;;;;;;4.15;100.00;100714.03;5033642;28;20149;-83
2024/01/18 06:29:03;;;;;;;17.33;8.02;;;;;;;4.05;100.00;100709.19;5030286;28;20107;-81
2024/01/18 06:31:31;;;;;;;23.02;8.32;;;;;;;4.12;100.00;100721.50;5027556;28;20046;-81
2024/01/18 06:34:02;;;;;;;20.27;7.72;;;;;;;4.13;100.00;100725.84;5027218;28;20050;-80
2024/01/18 06:36:31;;;;;;;19.85;7.00;;;;;;;4.16;100.00;100723.44;5026238;28;20114;-81
2024/01/18 06:39:02;;;;;;;19.23;7.35;;;;;;;4.15;100.00;100727.69;5030219;28;20074;-80
2024/01/18 06:41:31;;;;;;;18.00;7.35;;;;;;;4.16;100.00;100733.69;5033898;28;20073;-80
2024/01/18 06:44:00;;;;;;;13.90;6.20;;;;;;;4.16;100.00;100733.69;5031397;28;20053;-80
2024/01/18 06:46:29;;;;;;;13.95;5.85;;;;;;;4.14;100.00;100736.16;5027702;28;20069;-81
2024/01/18 06:49:04;;;;;;;14.35;5.95;;;;;;;4.16;100.00;100733.69;5030142;28;20119;-81
2024/01/18 06:51:34;;;;;;;15.93;5.75;;;;;;;4.15;100.00;100739.63;5022404;28;20049;-80
2024/01/18 06:54:03;;;;;;;14.52;5.40;;;;;;;4.15;100.00;100743.06;5031967;28;20060;-79
2024/01/18 06:56:32;;;;;;;12.48;5.65;;;;;;;4.13;100.00;100752.34;5024619;28;20056;-81
2024/01/18 06:59:06;;;;;;;11.63;4.65;;;;;;;4.14;100.00;100755.78;5025466;28;20045;-81
2024/01/18 07:01:35;;;;;;;14.45;4.40;;;;;;;4.12;100.00;100757.34;5020532;28;20142;-80
2024/01/18 07:04:04;;;;;;;8.63;3.53;;;;;;;4.10;100.00;100761.50;5028181;28;20132;-81
2024/01/18 07:06:34;;;;;;;11.73;4.95;;;;;;;4.06;100.00;100763.03;5025799;28;20123;-81
2024/01/18 07:09:04;;;;;;;11.65;4.50;;;;;;;4.05;100.00;100766.38;5024761;28;20054;-81
2024/01/18 07:11:33;;;;;;;9.10;3.88;;;;;;;4.05;100.00;100775.75;5029385;28;20054;-81
2024/01/18 07:14:03;;;;;;;7.82;3.83;;;;;;;4.05;100.00;100786.00;5019123;28;20516;-80
2024/01/18 07:16:31;;;;;;;9.10;3.75;;;;;;;4.05;100.00;100786.00;5032468;28;20062;-80
2024/01/18 07:19:00;;;;;;;9.95;4.25;;;;;;;4.04;100.00;100776.56;5032087;28;20128;-80
2024/01/18 07:21:32;;;;;;;9.48;3.72;;;;;;;4.02;100.00;100775.59;5024870;28;20144;-80
2024/01/18 07:24:03;;;;;;;7.43;3.90;;;;;;;3.97;100.00;100777.88;5028227;28;20052;-80
2024/01/18 07:26:32;;;;;;;6.47;3.67;;;;;;;3.97;100.00;100778.75;5020652;28;20055;-81
2024/01/18 07:29:01;;;;;;;14.65;4.18;;;;;;;4.01;100.00;100786.59;5028991;28;20049;-81
2024/01/18 07:31:35;;;;;;;17.75;4.75;;;;;;;3.96;100.00;100787.25;5030545;28;20464;-81
2024/01/18 07:34:03;;;;;;;13.50;3.80;;;;;;;3.96;100.00;100788.91;5020068;28;20078;-80
2024/01/18 07:36:32;;;;;;;10.55;4.30;;;;;;;3.90;100.00;100788.59;5030870;28;20060;-81
2024/01/18 07:39:03;;;;;;;9.07;4.32;;;;;;;3.91;100.00;100798.88;5025267;28;20048;-82
2024/01/18 07:41:40;;;;;;;12.90;4.13;;;;;;;3.91;100.00;100793.75;5018264;28;20045;-81
2024/01/18 07:44:09;;;;;;;9.82;3.72;;;;;;;3.84;100.00;100799.34;5028137;28;20046;-81
2024/01/18 07:46:37;;;;;;;7.85;3.90;;;;;;;3.91;100.00;100811.69;5027074;28;20050;-81
2024/01/18 07:49:06;;;;;;;11.18;4.78;;;;;;;3.93;100.00;100814.34;5026174;28;20049;-81
2024/01/18 07:51:37;;;;;;;8.68;3.78;;;;;;;3.93;100.00;100822.91;5031566;28;20069;-81
2024/01/18 07:54:07;;;;;;;6.82;3.22;;;;;;;3.91;100.00;100823.59;5027904;28;20107;-81
2024/01/18 07:56:36;;;;;;;9.88;3.50;;;;;;;3.88;100.00;100829.44;5028169;28;20063;-81
2024/01/18 07:59:05;;;;;;;8.63;3.38;;;;;;;3.89;100.00;100836.31;5028452;28;20053;-81
2024/01/18 08:01:35;;;;;;;9.05;3.75;;;;;;;3.89;100.00;100833.75;5025625;28;20049;-82
2024/01/18 08:04:04;;;;;;;8.35;3.40;;;;;;;3.92;100.00;100826.28;5028621;28;20050;-81
2024/01/18 08:06:34;;;;;;;7.47;3.08;;;;;;;3.97;100.00;100835.09;5020890;28;20080;-82
2024/01/18 08:09:02;;;;;;;6.97;3.25;;;;;;;3.96;100.00;100825.66;5026199;28;20136;-81
2024/01/18 08:11:34;;;;;;;7.13;3.42;;;;;;;3.91;100.00;100821.94;5023755;28;20057;-81
2024/01/18 08:14:11;;;;;;;11.52;3.72;;;;;;;3.96;100.00;100828.22;5018310;28;20058;-80
2024/01/18 08:16:39;;;;;;;8.07;2.75;;;;;;;3.92;100.00;100826.28;5020602;28;20057;-80
2024/01/18 08:19:08;;;;;;;6.63;3.45;;;;;;;3.90;100.00;100826.97;5030518;28;20080;-81
2024/01/18 08:21:46;;;;;;;4.93;2.55;;;;;;;3.92;100.00;100826.28;5029420;28;20056;-81
2024/01/18 08:24:15;;;;;;;6.72;2.97;;;;;;;3.92;100.00;100831.38;5021319;28;20057;-80
2024/01/18 08:26:46;;;;;;;5.43;2.40;;;;;;;3.94;100.00;100823.78;5030908;28;20053;-81
2024/01/18 08:29:17;;;;;;;6.70;3.08;;;;;;;3.95;100.00;100820.44;5030411;28;20162;-82
2024/01/18 08:31:53;;;;;;;7.35;3.28;;;;;;;3.97;100.00;100824.84;5030096;28;20111;-81
2024/01/18 08:34:22;;;;;;;7.28;3.10;;;;;;;3.97;100.00;100823.97;5029690;28;20064;-81
2024/01/18 08:36:51;;;;;;;10.07;3.40;;;;;;;4.00;100.00;100824.13;5026049;28;20107;-81
2024/01/18 08:39:22;;;;;;;9.68;3.17;;;;;;;3.98;100.00;100826.59;5026832;28;20045;-81
2024/01/18 08:41:59;;;;;;;6.43;2.85;;;;;;;3.99;100.00;100833.50;5024933;28;20054;-81
2024/01/18 08:44:29;;;;;;;7.55;3.22;;;;;;;3.93;100.00;100825.47;5022063;28;20048;-81
2024/01/18 08:46:58;;;;;;;11.25;4.30;;;;;;;3.99;100.00;100836.06;5023547;28;20049;-81
2024/01/18 08:49:31;;;;;;;8.98;3.33;;;;;;;3.99;100.00;100838.63;5025230;28;20057;-81
2024/01/18 08:51:59;;;;;;;7.57;3.00;;;;;;;4.01;100.00;100840.38;5024097;28;20053;-81
2024/01/18 08:54:28;;;;;;;12.48;3.80;;;;;;;4.01;100.00;100840.38;5034585;28;20052;-81
2024/01/18 08:56:59;;;;;;;12.80;4.80;;;;;;;4.01;100.00;100838.72;5035721;28;20054;-81
2024/01/18 08:59:37;;;;;;;21.77;4.88;;;;;;;3.96;100.00;100842.66;5040097;28;20042;-81
2024/01/18 09:02:06;;;;;;;9.48;4.22;;;;;;;4.01;100.00;100841.28;5024777;28;20251;-81
2024/01/18 09:04:35;;;;;;;15.02;4.65;;;;;;;3.98;100.00;100849.63;5036868;28;20287;-81
2024/01/18 09:07:04;;;;;;;11.02;4.00;;;;;;;4.01;100.00;100842.94;5048954;28;20045;-81
2024/01/18 09:09:34;;;;;;;12.43;4.35;;;;;;;4.03;100.00;100849.03;5038343;28;20045;-82
2024/01/18 09:12:05;;;;;;;9.10;4.05;;;;;;;4.01;100.00;100840.38;5038887;28;20045;-81
2024/01/18 09:14:34;;;;;;;8.45;3.95;;;;;;;4.02;100.00;100845.59;5011346;28;20137;-82
2024/01/18 09:17:03;;;;;;;9.32;4.35;;;;;;;4.03;100.00;100854.16;5023607;28;20107;-81
2024/01/18 09:19:40;;;;;;;10.73;4.15;;;;;;;4.03;100.00;100854.16;5028006;28;20133;-80
2024/01/18 09:22:09;;;;;;;11.23;3.65;;;;;;;3.98;100.00;100836.84;5026715;28;20065;-79
2024/01/18 09:24:38;;;;;;;11.63;3.83;;;;;;;4.02;100.00;100845.59;5021203;28;20092;-80
2024/01/18 09:27:08;;;;;;;5.32;3.03;;;;;;;3.97;100.00;100853.00;5025610;28;20128;-80
2024/01/18 09:29:40;;;;;;;13.25;4.10;;;;;;;3.94;100.00;100849.38;5021469;28;20509;-80
2024/01/18 09:32:09;;;;;;;13.25;4.10;;;;;;;3.95;100.00;100854.59;5020204;28;20046;-80
2024/01/18 09:34:38;;;;;;;13.70;4.13;;;;;;;3.93;100.00;100853.63;5026135;28;20061;-80
2024/01/18 09:37:07;;;;;;;9.45;3.85;;;;;;;3.91;100.00;100857.75;5022117;28;20072;-80
2024/01/18 09:39:44;;;;;;;6.50;3.25;;;;;;;3.92;100.00;100854.44;5027768;28;20083;-80
2024/01/18 09:42:18;;;;;;;20.48;3.53;;;;;;;3.93;100.00;100862.97;5025419;28;20049;-80
2024/01/18 09:44:48;;;;;;;9.32;3.13;;;;;;;3.94;100.00;100865.66;5026026;28;20056;-81
2024/01/18 09:47:19;;;;;;;5.70;3.22;;;;;;;3.95;100.00;100876.75;5024676;28;20134;-80
2024/01/18 09:49:49;;;;;;;7.93;3.22;;;;;;;3.96;100.00;100873.38;5028942;28;20041;-80
2024/01/18 09:52:18;;;;;;;14.70;3.63;;;;;;;3.98;100.00;100877.78;5028588;28;20047;-80
2024/01/18 09:54:47;;;;;;;12.38;3.55;;;;;;;3.96;100.00;100870.81;5029616;28;20069;-81
2024/01/18 09:57:22;;;;;;;9.60;3.50;;;;;;;3.97;100.00;100878.59;5016647;28;20060;-81
2024/01/18 09:59:52;;;;;;;10.55;3.55;;;;;;;3.98;100.00;100882.91;5024833;28;20061;-81
2024/01/18 10:02:21;;;;;;;16.98;3.42;;;;;;;4.03;100.00;100884.88;5022963;28;20054;-81
2024/01/18 10:04:50;;;;;;;10.18;4.00;;;;;;;3.99;100.00;100884.69;5019641;28;20064;-81
2024/01/18 10:07:26;;;;;;;9.88;4.25;;;;;;;4.02;100.00;100888.25;5021824;28;20049;-81
2024/01/18 10:09:55;;;;;;;12.13;4.05;;;;;;;4.01;100.00;100889.94;5026113;28;20139;-81
2024/01/18 10:12:32;;;;;;;16.23;4.22;;;;;;;4.01;100.00;100896.69;5025860;28;20072;-81
2024/01/18 10:15:06;;;;;;;10.80;3.78;;;;;;;4.05;100.00;100896.09;5019248;28;20108;-81
2024/01/18 10:17:38;;;;;;;9.15;2.95;;;;;;;4.05;100.00;100908.88;5018008;28;20133;-81
2024/01/18 10:20:13;;;;;;;9.63;3.40;;;;;;;4.02;100.00;100903.59;5020129;28;20050;-80
2024/01/18 10:22:51;;;;;;;11.57;3.72;;;;;;;4.02;100.00;100901.91;5024555;28;20543;-80
2024/01/18 10:25:18;;;;;;;14.18;4.03;;;;;;;4.03;100.00;100919.03;5022458;28;20057;-81
2024/01/18 10:27:48;;;;;;;9.50;2.97;;;;;;;4.03;100.00;100916.47;5024417;28;20049;-81
2024/01/18 10:30:18;;;;;;;10.15;3.72;;;;;;;4.05;100.00;100906.31;5022110;28;20056;-80
2024/01/18 10:32:50;;;;;;;7.65;3.97;;;;;;;4.03;100.00;100919.03;5026005;28;20045;-80
2024/01/18 10:35:24;;;;;;;8.82;3.55;;;;;;;4.03;100.00;100915.59;5022474;28;20042;-81
2024/01/18 10:38:07;;;;;;;10.60;3.83;;;;;;;3.99;100.00;100910.31;5022822;28;20085;-81
2024/01/18 10:40:37;;;;;;;9.93;4.60;;;;;;;4.01;100.00;100912.06;5025700;28;20053;-81
2024/01/18 10:43:09;;;;;;;10.93;3.72;;;;;;;4.02;100.00;100909.59;5026256;28;20417;-81
2024/01/18 10:45:38;;;;;;;11.90;4.05;;;;;;;3.98;100.00;100912.78;5020763;28;20129;-81
2024/01/18 10:48:11;;;;;;;5.80;2.72;;;;;;;3.99;100.00;100914.56;5024028;28;20501;-80
2024/01/18 10:50:40;;;;;;;7.40;2.58;;;;;;;3.93;100.00;100901.38;5026749;28;20084;-80
2024/01/18 10:53:10;;;;;;;6.47;2.58;;;;;;;3.94;100.00;100911.72;5030925;28;20046;-81
2024/01/18 10:55:38;;;;;;;4.38;2.22;;;;;;;3.92;100.00;100903.06;5025246;28;20061;-81
2024/01/18 10:58:19;;;;;;;5.82;2.75;;;;;;;3.91;100.00;100908.97;5025444;28;20596;-81
2024/01/18 11:00:48;;;;;;;5.47;2.47;;;;;;;3.92;100.00;100910.75;5029696;28;20056;-81
2024/01/18 11:03:17;;;;;;;6.80;2.88;;;;;;;3.94;100.00;100905.69;5030213;28;20049;-81
2024/01/18 11:05:48;;;;;;;10.40;3.30;;;;;;;3.93;100.00;100899.69;5033404;28;20038;-80
2024/01/18 11:08:17;;;;;;;5.38;2.72;;;;;;;3.95;100.00;100897.25;5035156;28;20049;-80
2024/01/18 11:10:48;;;;;;;8.35;3.00;;;;;;;3.95;100.00;100903.22;5033006;28;20046;-81
2024/01/18 11:13:19;;;;;;;8.40;3.20;;;;;;;3.95;100.00;100900.66;5023759;28;20053;-81
2024/01/18 11:15:48;;;;;;;5.68;3.28;;;;;;;3.94;100.00;100900.56;5028207;28;20052;-80
2024/01/18 11:18:21;;;;;;;8.18;3.08;;;;;;;3.99;100.00;100914.56;5029733;28;20091;-80
2024/01/18 11:21:13;;;;;;;6.40;3.20;;;;;;;3.99;100.00;100912.00;5024321;28;20054;-81
2024/01/18 11:23:42;;;;;;;5.97;2.83;;;;;;;4.03;100.00;100918.16;5019612;28;20077;-80
2024/01/18 11:26:20;;;;;;;6.70;2.83;;;;;;;4.05;100.00;100920.00;5027897;28;20057;-81
2024/01/18 11:29:11;;;;;;;7.78;3.08;;;;;;;4.01;100.00;100909.50;5028201;28;20531;-81
2024/01/18 11:31:50;;;;;;;12.00;3.33;;;;;;;4.04;100.00;100913.13;5029159;28;20444;-81
2024/01/18 11:34:32;;;;;;;8.00;3.13;;;;;;;4.03;100.00;100905.34;5023262;28;20160;-81
2024/01/18 11:37:18;;;;;;;10.05;3.15;;;;;;;4.04;100.00;100907.13;5025385;28;20050;-80